Honiara International Airport
AGGH : now visible

Airfield :











YOU CAN JOIN US ON...

 
LOGIN :

Register | Disclaimer

   EN    FR    IT 

 









Legend :    VFR   Marginal VFR   IFR   Intensive IFR   Very Intensive IFR
Visi :
Ceiling :
>= 8 km
>= 3000ft
5 to 8 km
1000 to 3000 ft
1500m to 5 km
500 to 1000 ft
800 to 1500m
200 to 500 ft
< 800m
< 200 ft
Symbols :   Thunderstorms  Fog  Heavy snow  Heavy precipitations  Wind > 20 kt






- Airport Elevation : 28 ft
- IATA code : HIR


AGGH - Honiara International

CURRENT METAR :
  • 250800Z 14004KT 9000 -RA SCT016 SCT016CB OVC100 26/26 Q1008 RMK SPECI CEASED

EXPIRED METARs :
  • 250700Z 34010KT 9999 -TSRA BKN017 SCT019CB BKN030 27/26 Q1007
  • 250600Z 34010KT 9000 TS BKN017 SCT019CB 27/26 Q1007
  • 250500Z 34009KT 9999 -RA FEW017 FEW019CB SCT030 BKN100 26/26 Q1006

TAF TAF AGGH
Valid from the 25 at 06:00 until the 26 at 06:00 UTC


250522Z 2506/2606 32015KT 9999 -SHRA SCT016 SCT026 BKN100
PROB40 INTER 2506/2512 5000 TSSH BKN015 FEW016CB T 26 26 25 25 Q 1006 1008 1009 1007
AGGG FIR / Oceania



MET'MAP, your aeronautical weather chart ! - Copyright ORBIFLY December 2007 - Disclaimer

ORBIFLY MET'MAP TEAM :

Programming & Development : Alexandra Zaïnal
Original concept : Baudouin d'Aumeries
Technical & hardware support : Manuel Goepfert
Assistance : Marc-Olivier Méhu

Contact : metmap@orbifly.com




SOURCES & CREDITS :

   NOAA       Earth
Advisory